createdAt,value
2018-12-14T00:01:29.661Z,3.75
2018-12-14T00:02:27.814Z,3.75
2018-12-14T00:04:23.781Z,3.75
2018-12-14T00:05:22.523Z,3.63
2018-12-14T00:07:17.228Z,3.64
2018-12-14T00:08:17.144Z,3.67
2018-12-14T00:10:16.080Z,3.64
2018-12-14T00:11:11.825Z,3.74
2018-12-14T00:13:06.593Z,3.74
2018-12-14T00:14:06.455Z,3.93
2018-12-14T00:16:01.084Z,3.64
2018-12-14T00:17:01.088Z,3.81
2018-12-14T00:19:01.576Z,3.64
2018-12-14T00:19:55.784Z,3.72
2018-12-14T00:21:50.432Z,3.72
2018-12-14T00:22:50.374Z,3.70
2018-12-14T00:24:45.136Z,3.64
2018-12-14T00:25:45.078Z,3.64
2018-12-14T00:27:39.696Z,3.72
2018-12-14T00:29:54.425Z,3.68
2018-12-14T00:32:09.040Z,3.62
2018-12-14T00:33:09.064Z,3.77
2018-12-14T00:35:03.726Z,3.67
2018-12-14T00:36:03.637Z,3.62
2018-12-14T00:37:58.307Z,3.70
2018-12-14T00:38:58.300Z,3.67
2018-12-14T00:40:53.045Z,3.60
2018-12-14T00:41:52.935Z,3.67
2018-12-14T00:43:47.585Z,3.70
2018-12-14T00:44:47.573Z,3.60
2018-12-14T00:46:42.296Z,3.60
2018-12-14T00:47:42.248Z,3.56
2018-12-14T00:49:36.911Z,3.57
2018-12-14T00:50:36.906Z,3.67
2018-12-14T00:52:31.586Z,3.67
2018-12-14T00:53:31.546Z,3.67
2018-12-14T00:55:26.181Z,3.72
2018-12-14T00:56:26.161Z,3.67
2018-12-14T00:58:20.921Z,3.63
2018-12-14T00:59:20.838Z,3.63
2018-12-14T01:01:15.466Z,3.72
2018-12-14T01:02:15.501Z,3.77
2018-12-14T01:04:10.187Z,3.63
2018-12-14T01:05:11.912Z,3.67
2018-12-14T01:08:06.528Z,3.57
2018-12-14T01:10:05.664Z,3.52
2018-12-14T01:11:01.112Z,3.33
2018-12-14T01:12:55.355Z,3.50
2018-12-14T01:13:54.046Z,3.57
2018-12-14T01:15:48.729Z,3.46
2018-12-14T01:16:50.393Z,3.42
2018-12-14T01:18:45.232Z,3.56
2018-12-14T01:19:45.528Z,3.53
2018-12-14T01:21:39.786Z,3.42
2018-12-14T01:22:40.220Z,3.46
2018-12-14T01:24:34.105Z,3.45
2018-12-14T01:25:34.395Z,3.50
2018-12-14T01:27:29.473Z,3.52
2018-12-14T01:28:29.490Z,3.46
2018-12-14T01:30:23.630Z,3.49
2018-12-14T01:31:23.699Z,3.52
2018-12-14T01:33:18.839Z,3.45
2018-12-14T01:34:18.777Z,3.50
2018-12-14T01:35:18.908Z,3.50
2018-12-14T01:36:18.851Z,3.53
2018-12-14T01:37:18.908Z,3.53
2018-12-14T01:38:19.094Z,3.56
2018-12-14T01:40:18.841Z,3.49
2018-12-14T01:41:18.755Z,3.34
2018-12-14T01:42:18.733Z,3.26
2018-12-14T01:43:19.112Z,3.49
2018-12-14T01:44:18.851Z,3.41
2018-12-14T01:45:18.778Z,3.41
2018-12-14T01:46:18.834Z,3.41
2018-12-14T01:47:18.835Z,3.34
2018-12-14T01:48:18.763Z,3.34
2018-12-14T01:49:18.766Z,3.42
2018-12-14T01:50:18.997Z,3.46
2018-12-14T01:51:18.836Z,3.39
2018-12-14T01:52:18.795Z,3.39
2018-12-14T01:53:18.758Z,3.35
2018-12-14T01:54:18.756Z,3.35
2018-12-14T01:55:18.822Z,3.33
2018-12-14T01:56:18.966Z,3.25
2018-12-14T01:57:18.760Z,3.35
2018-12-14T01:58:18.263Z,3.41
2018-12-14T01:59:18.266Z,3.33
2018-12-14T02:00:18.298Z,3.34
2018-12-14T02:01:19.014Z,3.39
2018-12-14T02:02:18.329Z,3.37
2018-12-14T02:03:18.563Z,3.34
2018-12-14T02:04:19.007Z,3.28
2018-12-14T02:05:18.974Z,3.23
2018-12-14T02:06:18.327Z,3.37
2018-12-14T02:07:18.846Z,3.34
2018-12-14T02:08:18.970Z,3.23
2018-12-14T02:09:18.921Z,3.28
2018-12-14T02:10:18.997Z,3.28
2018-12-14T02:11:18.815Z,3.23
2018-12-14T02:12:18.983Z,3.26
2018-12-14T02:13:18.332Z,3.30
2018-12-14T02:14:18.350Z,3.35
2018-12-14T02:15:18.351Z,3.28
2018-12-14T02:16:18.793Z,3.34
2018-12-14T02:17:18.260Z,3.31
2018-12-14T02:18:17.801Z,3.26
2018-12-14T02:19:18.248Z,3.15
2018-12-14T02:20:18.280Z,3.17
2018-12-14T02:21:18.337Z,3.19
2018-12-14T02:22:18.244Z,3.08
2018-12-14T02:23:18.332Z,3.17
2018-12-14T02:24:18.245Z,3.23
2018-12-14T02:25:18.264Z,3.28
2018-12-14T02:26:18.335Z,3.19
2018-12-14T02:27:18.304Z,3.17
2018-12-14T02:28:18.346Z,3.23
2018-12-14T02:29:18.340Z,3.30
2018-12-14T02:30:18.257Z,3.13
2018-12-14T02:31:18.265Z,3.17
2018-12-14T02:32:18.459Z,3.22
2018-12-14T02:33:18.633Z,3.08
2018-12-14T02:34:18.265Z,3.13
2018-12-14T02:35:18.270Z,3.28
2018-12-14T02:36:18.265Z,3.19
2018-12-14T02:37:18.261Z,3.22
2018-12-14T02:38:18.259Z,3.22
2018-12-14T02:39:18.258Z,3.16
2018-12-14T02:40:18.349Z,3.17
2018-12-14T02:41:17.828Z,3.17
2018-12-14T02:42:19.417Z,3.17
2018-12-14T02:43:18.331Z,3.17
2018-12-14T02:45:18.323Z,3.15
2018-12-14T02:46:17.860Z,3.15
2018-12-14T02:47:18.325Z,3.16
2018-12-14T02:48:18.272Z,3.15
2018-12-14T02:49:18.262Z,3.17
2018-12-14T02:50:18.271Z,3.20
2018-12-14T02:51:17.774Z,3.17
2018-12-14T02:52:17.758Z,3.23
2018-12-14T02:53:17.770Z,3.25
2018-12-14T02:54:17.778Z,3.19
2018-12-14T02:55:17.778Z,3.13
2018-12-14T02:56:18.436Z,3.08
2018-12-14T02:57:18.326Z,3.15
2018-12-14T02:58:17.801Z,3.15
2018-12-14T02:59:18.257Z,3.16
2018-12-14T03:00:18.482Z,3.30
2018-12-14T03:01:18.554Z,3.15
2018-12-14T03:02:18.450Z,3.16
2018-12-14T03:03:18.337Z,3.20
2018-12-14T03:04:18.430Z,3.31
2018-12-14T03:05:17.327Z,3.13
2018-12-14T03:06:17.840Z,3.17
2018-12-14T03:07:17.787Z,3.16
2018-12-14T03:08:17.768Z,3.22
2018-12-14T03:09:17.781Z,3.12
2018-12-14T03:10:17.826Z,3.16
2018-12-14T03:11:17.829Z,3.08
2018-12-14T03:12:17.863Z,3.10
2018-12-14T03:13:17.822Z,3.04
2018-12-14T03:14:17.317Z,3.17
2018-12-14T03:15:17.869Z,3.02
2018-12-14T03:16:18.121Z,3.08
2018-12-14T03:17:17.333Z,3.10
2018-12-14T03:18:17.901Z,3.07
2018-12-14T03:19:17.241Z,3.17
2018-12-14T03:20:17.781Z,3.17
2018-12-14T03:21:17.775Z,3.05
2018-12-14T03:22:17.828Z,2.97
2018-12-14T03:23:17.745Z,3.22
2018-12-14T03:24:17.275Z,3.10
2018-12-14T03:25:17.756Z,3.07
2018-12-14T03:26:17.868Z,3.17
2018-12-14T03:27:17.790Z,2.99
2018-12-14T03:28:17.846Z,3.01
2018-12-14T03:29:17.779Z,2.98
2018-12-14T03:30:17.843Z,3.02
2018-12-14T03:31:17.803Z,3.10
2018-12-14T03:32:17.336Z,3.02
2018-12-14T03:33:17.764Z,3.04
2018-12-14T03:34:17.768Z,2.97
2018-12-14T03:35:17.855Z,3.12
2018-12-14T03:36:17.779Z,3.07
2018-12-14T03:37:17.769Z,3.16
2018-12-14T03:38:17.828Z,3.16
2018-12-14T03:39:17.799Z,3.07
2018-12-14T03:40:17.772Z,2.89
2018-12-14T03:41:17.353Z,3.07
2018-12-14T03:42:18.288Z,3.04
2018-12-14T03:43:17.422Z,2.95
2018-12-14T03:44:17.955Z,3.05
2018-12-14T03:45:17.357Z,3.07
2018-12-14T03:46:18.105Z,3.17
2018-12-14T03:47:17.166Z,3.07
2018-12-14T03:48:17.293Z,3.17
2018-12-14T03:49:17.171Z,3.30
2018-12-14T03:50:23.336Z,3.25
2018-12-14T03:51:17.277Z,3.26
2018-12-14T03:52:17.345Z,3.39
2018-12-14T03:53:17.910Z,3.39
2018-12-14T03:54:18.164Z,3.35
2018-12-14T03:55:17.278Z,3.31
2018-12-14T03:56:17.279Z,3.35
2018-12-14T03:57:17.304Z,3.34
2018-12-14T03:58:16.769Z,3.31
2018-12-14T03:59:17.291Z,3.26
2018-12-14T04:00:17.276Z,3.30
2018-12-14T04:01:17.407Z,3.31
2018-12-14T04:02:17.450Z,3.37
2018-12-14T04:03:17.419Z,3.28
2018-12-14T04:04:17.329Z,3.31
2018-12-14T04:05:17.340Z,3.31
2018-12-14T04:06:17.353Z,3.25
2018-12-14T04:07:17.340Z,3.28
2018-12-14T04:08:17.377Z,3.25
2018-12-14T04:09:17.399Z,3.42
2018-12-14T04:10:17.342Z,3.34
2018-12-14T04:11:17.334Z,3.34
2018-12-14T04:12:17.340Z,3.34
2018-12-14T04:13:17.332Z,3.42
2018-12-14T04:14:17.586Z,3.31
2018-12-14T04:15:17.124Z,3.23
2018-12-14T04:16:17.339Z,3.23
2018-12-14T04:17:17.350Z,3.31
2018-12-14T04:18:17.323Z,3.41
2018-12-14T04:19:19.283Z,3.44
2018-12-14T04:20:17.385Z,3.53
2018-12-14T04:21:17.349Z,3.35
2018-12-14T04:22:17.442Z,3.41
2018-12-14T04:23:17.397Z,3.22
2018-12-14T04:24:17.376Z,3.28
2018-12-14T04:25:17.813Z,3.34
2018-12-14T04:26:17.398Z,3.39
2018-12-14T04:27:17.476Z,3.49
2018-12-14T04:28:17.328Z,3.41
2018-12-14T04:29:17.642Z,3.46
2018-12-14T04:30:16.614Z,3.39
2018-12-14T04:31:17.034Z,3.31
2018-12-14T04:32:17.058Z,3.37
2018-12-14T04:33:17.035Z,3.28
2018-12-14T04:34:17.009Z,3.44
2018-12-14T04:35:16.866Z,3.34
2018-12-14T04:36:17.390Z,3.26
2018-12-14T04:37:17.354Z,3.37
2018-12-14T04:38:17.476Z,3.30
2018-12-14T04:39:17.297Z,3.28
2018-12-14T04:40:17.322Z,3.20
2018-12-14T04:41:17.367Z,3.17
2018-12-14T04:42:17.608Z,3.17
2018-12-14T04:43:17.547Z,3.19
2018-12-14T04:44:17.230Z,3.05
2018-12-14T04:45:19.311Z,3.15
2018-12-14T04:46:17.257Z,3.13
2018-12-14T04:47:18.915Z,3.05
2018-12-14T04:48:18.922Z,3.15
2018-12-14T04:49:16.859Z,3.17
2018-12-14T04:50:16.848Z,3.05
2018-12-14T04:51:17.811Z,3.07
2018-12-14T04:52:16.593Z,3.20
2018-12-14T04:53:16.472Z,3.17
2018-12-14T04:54:16.512Z,3.05
2018-12-14T04:55:16.505Z,3.08
2018-12-14T04:56:17.809Z,3.12
2018-12-14T04:57:16.770Z,3.12
2018-12-14T04:58:16.806Z,3.08
2018-12-14T04:59:16.696Z,3.01
2018-12-14T05:00:16.824Z,3.05
2018-12-14T05:01:16.856Z,3.13
2018-12-14T05:02:16.847Z,3.17
2018-12-14T05:03:16.795Z,3.08
2018-12-14T05:04:16.845Z,3.05
2018-12-14T05:05:17.309Z,3.22
2018-12-14T05:06:16.908Z,3.19
2018-12-14T05:07:16.910Z,3.15
2018-12-14T05:08:16.881Z,3.08
2018-12-14T05:09:16.957Z,3.08
2018-12-14T05:10:16.909Z,3.17
2018-12-14T05:11:16.921Z,3.10
2018-12-14T05:12:17.304Z,3.05
2018-12-14T05:13:16.921Z,3.05
2018-12-14T05:14:16.899Z,3.07
2018-12-14T05:15:16.928Z,2.94
2018-12-14T05:16:16.749Z,2.97
2018-12-14T05:17:16.728Z,2.99
2018-12-14T05:18:16.700Z,2.87
2018-12-14T05:19:16.714Z,2.81
2018-12-14T05:20:16.576Z,2.83
2018-12-14T05:21:16.627Z,2.80
2018-12-14T05:22:16.677Z,2.95
2018-12-14T05:23:16.622Z,2.94
2018-12-14T05:24:16.726Z,3.04
2018-12-14T05:25:16.695Z,2.98
2018-12-14T05:26:16.883Z,2.97
2018-12-14T05:27:16.895Z,2.99
2018-12-14T05:28:16.934Z,2.95
2018-12-14T05:29:16.833Z,2.89
2018-12-14T05:30:16.392Z,2.95
2018-12-14T05:31:17.099Z,2.90
2018-12-14T05:32:16.727Z,2.95
2018-12-14T05:33:16.647Z,2.89
2018-12-14T05:34:18.123Z,2.90
2018-12-14T05:35:18.153Z,2.84
2018-12-14T05:36:18.144Z,2.84
2018-12-14T05:37:16.628Z,2.84
2018-12-14T05:38:15.946Z,2.80
2018-12-14T05:39:15.498Z,2.80
2018-12-14T05:40:15.925Z,2.77
2018-12-14T05:41:16.054Z,2.79
2018-12-14T05:42:15.739Z,2.74
2018-12-14T05:43:16.092Z,2.74
2018-12-14T05:44:16.330Z,2.90
2018-12-14T05:45:16.397Z,2.80
2018-12-14T05:46:16.795Z,2.86
2018-12-14T05:47:16.133Z,2.69
2018-12-14T05:48:16.798Z,2.80
2018-12-14T05:49:16.229Z,2.90
2018-12-14T05:50:17.320Z,2.83
2018-12-14T05:51:17.063Z,2.86
2018-12-14T05:52:16.866Z,2.79
2018-12-14T05:53:17.305Z,2.86
2018-12-14T05:54:16.343Z,2.84
2018-12-14T05:55:16.565Z,2.89
2018-12-14T05:56:16.078Z,2.94
2018-12-14T05:57:16.779Z,2.80
2018-12-14T05:58:16.098Z,2.86
2018-12-14T05:59:15.708Z,2.84
2018-12-14T06:00:16.179Z,2.77
2018-12-14T06:01:16.274Z,2.94
2018-12-14T06:02:16.225Z,2.86
2018-12-14T06:03:16.105Z,2.89
2018-12-14T06:04:16.162Z,2.81
2018-12-14T06:05:16.260Z,2.76
2018-12-14T06:06:15.583Z,2.77
2018-12-14T06:07:15.657Z,2.77
2018-12-14T06:08:16.119Z,2.62
2018-12-14T06:09:15.987Z,2.63
2018-12-14T06:10:16.376Z,2.71
2018-12-14T06:11:16.398Z,2.74
2018-12-14T06:12:16.382Z,2.73
2018-12-14T06:13:16.064Z,2.74
2018-12-14T06:14:16.132Z,2.77
2018-12-14T06:15:16.063Z,2.74
2018-12-14T06:16:16.094Z,2.79
2018-12-14T06:17:16.217Z,2.77
2018-12-14T06:18:16.099Z,2.69
2018-12-14T06:19:16.766Z,2.69
2018-12-14T06:20:16.065Z,2.66
2018-12-14T06:21:16.371Z,2.66
2018-12-14T06:22:16.163Z,2.66
2018-12-14T06:23:16.217Z,2.71
2018-12-14T06:24:16.125Z,2.65
2018-12-14T06:25:35.978Z,2.74
2018-12-14T06:26:18.071Z,2.73
2018-12-14T06:27:15.422Z,2.58
2018-12-14T06:28:29.644Z,2.63
2018-12-14T06:29:16.305Z,2.66
2018-12-14T06:30:18.066Z,2.62
2018-12-14T06:31:15.559Z,2.56
2018-12-14T06:32:15.484Z,2.55
2018-12-14T06:33:15.871Z,2.59
2018-12-14T06:34:19.401Z,2.66
2018-12-14T06:35:15.629Z,2.62
2018-12-14T06:36:15.820Z,2.62
2018-12-14T06:37:15.852Z,2.61
2018-12-14T06:38:16.791Z,2.71
2018-12-14T06:39:15.641Z,2.69
2018-12-14T06:40:29.842Z,2.71
2018-12-14T06:41:21.546Z,2.63
2018-12-14T06:42:15.666Z,2.62
2018-12-14T06:43:16.076Z,2.62
2018-12-14T06:44:16.762Z,2.61
2018-12-14T06:45:15.350Z,2.51
2018-12-14T06:46:15.692Z,2.58
2018-12-14T06:47:16.321Z,2.61
2018-12-14T06:48:15.627Z,2.58
2018-12-14T06:49:16.295Z,2.63
2018-12-14T06:50:15.741Z,2.59
2018-12-14T06:51:17.296Z,2.59
2018-12-14T06:52:15.774Z,2.66
2018-12-14T06:53:15.659Z,2.74
2018-12-14T06:54:15.903Z,2.71
2018-12-14T06:55:15.782Z,2.56
2018-12-14T06:56:15.319Z,2.69
2018-12-14T06:57:16.404Z,2.71
2018-12-14T06:58:15.546Z,2.69
2018-12-14T06:59:15.112Z,2.74
2018-12-14T07:00:15.704Z,2.62
2018-12-14T07:01:15.655Z,2.74
2018-12-14T07:02:15.771Z,2.61
2018-12-14T07:03:18.173Z,2.66
2018-12-14T07:04:15.969Z,2.66
2018-12-14T07:05:15.197Z,2.59
2018-12-14T07:06:15.723Z,2.66
2018-12-14T07:07:29.933Z,2.76
2018-12-14T07:08:15.139Z,2.62
2018-12-14T07:09:15.016Z,2.77
2018-12-14T07:10:15.639Z,2.77
2018-12-14T07:11:15.115Z,2.58
2018-12-14T07:12:15.609Z,2.61
2018-12-14T07:13:21.674Z,2.63
2018-12-14T07:14:15.419Z,2.62
2018-12-14T07:15:16.104Z,2.58
2018-12-14T07:16:15.054Z,2.58
2018-12-14T07:17:15.079Z,2.65
2018-12-14T07:18:17.811Z,2.55
2018-12-14T07:19:17.797Z,2.58
2018-12-14T07:20:17.218Z,2.55
2018-12-14T07:21:15.312Z,2.56
2018-12-14T07:22:15.797Z,2.65
2018-12-14T07:23:15.270Z,2.69
2018-12-14T07:24:15.252Z,2.76
2018-12-14T07:25:15.762Z,2.63
2018-12-14T07:26:15.020Z,2.66
2018-12-14T07:27:15.127Z,2.71
2018-12-14T07:28:15.196Z,2.69
2018-12-14T07:29:15.332Z,2.71
2018-12-14T07:30:15.155Z,2.73
2018-12-14T07:31:15.222Z,2.69
2018-12-14T07:32:29.806Z,2.71
2018-12-14T07:33:15.229Z,2.71
2018-12-14T07:34:15.787Z,2.76
2018-12-14T07:35:14.987Z,2.58
2018-12-14T07:36:15.071Z,2.77
2018-12-14T07:37:15.336Z,2.73
2018-12-14T07:38:15.815Z,2.71
2018-12-14T07:39:15.049Z,2.65
2018-12-14T07:40:15.467Z,2.61
2018-12-14T07:41:50.041Z,2.66
2018-12-14T07:42:15.517Z,2.84
2018-12-14T07:43:14.435Z,2.69
2018-12-14T07:44:16.317Z,2.79
2018-12-14T07:45:15.632Z,2.68
2018-12-14T07:46:15.812Z,2.79
2018-12-14T07:47:15.048Z,2.68
2018-12-14T07:48:14.861Z,2.71
2018-12-14T07:49:15.815Z,2.59
2018-12-14T07:50:16.814Z,2.61
2018-12-14T07:51:15.070Z,2.62
2018-12-14T07:52:15.350Z,2.63
2018-12-14T07:53:15.601Z,2.58
2018-12-14T07:54:15.619Z,2.73
2018-12-14T07:55:15.470Z,2.74
2018-12-14T07:56:15.795Z,2.74
2018-12-14T07:57:15.235Z,2.73
2018-12-14T07:58:15.260Z,2.77
2018-12-14T07:59:14.471Z,2.84
2018-12-14T08:00:15.030Z,2.79
2018-12-14T08:01:15.170Z,2.81
2018-12-14T08:02:15.148Z,2.73
2018-12-14T08:03:15.099Z,2.76
2018-12-14T08:04:15.179Z,2.77
2018-12-14T08:05:15.199Z,2.65
2018-12-14T08:06:15.146Z,2.71
2018-12-14T08:07:15.061Z,2.68
2018-12-14T08:08:14.654Z,2.71
2018-12-14T08:09:14.483Z,2.90
2018-12-14T08:10:17.399Z,2.77
2018-12-14T08:11:21.262Z,2.73
2018-12-14T08:12:14.622Z,2.74
2018-12-14T08:13:15.392Z,2.63
2018-12-14T08:14:15.620Z,2.68
2018-12-14T08:15:14.732Z,2.73
2018-12-14T08:16:14.709Z,2.73
2018-12-14T08:17:14.799Z,2.83
2018-12-14T08:18:14.846Z,2.71
2018-12-14T08:19:14.818Z,2.66
2018-12-14T08:20:17.145Z,2.74
2018-12-14T08:21:16.121Z,2.71
2018-12-14T08:22:14.680Z,2.66
2018-12-14T08:23:29.817Z,2.83
2018-12-14T08:24:14.996Z,2.83
2018-12-14T08:25:16.503Z,2.71
2018-12-14T08:26:14.541Z,2.68
2018-12-14T08:27:12.720Z,2.69
2018-12-14T08:28:12.711Z,2.79
2018-12-14T08:29:12.713Z,2.74
2018-12-14T08:30:12.679Z,2.69
2018-12-14T08:31:12.650Z,2.66
2018-12-14T08:32:12.640Z,2.73
2018-12-14T08:33:12.666Z,2.77
2018-12-14T08:34:12.617Z,2.80
2018-12-14T08:35:12.680Z,2.77
2018-12-14T08:36:12.618Z,2.73
2018-12-14T08:37:12.640Z,2.74
2018-12-14T08:38:12.616Z,2.73
2018-12-14T08:39:12.574Z,2.71
2018-12-14T08:40:12.600Z,2.69
2018-12-14T08:41:12.561Z,2.77
2018-12-14T08:42:12.553Z,2.74
2018-12-14T08:43:15.592Z,2.73
2018-12-14T08:44:12.543Z,2.76
2018-12-14T08:45:12.589Z,2.86
2018-12-14T08:46:12.599Z,2.87
2018-12-14T08:47:12.523Z,2.90
2018-12-14T08:48:12.601Z,2.94
2018-12-14T08:49:12.537Z,2.86
2018-12-14T08:50:12.541Z,2.90
2018-12-14T08:51:12.511Z,2.89
2018-12-14T08:52:12.465Z,2.86
2018-12-14T08:53:12.517Z,2.94
2018-12-14T08:54:12.499Z,2.83
2018-12-14T08:55:12.439Z,2.84
2018-12-14T08:56:12.444Z,2.97
2018-12-14T08:57:12.450Z,2.83
2018-12-14T08:58:12.728Z,2.84
2018-12-14T08:59:12.409Z,2.98
2018-12-14T09:00:12.388Z,2.98
2018-12-14T09:01:12.448Z,2.94
2018-12-14T09:02:12.418Z,3.04
2018-12-14T09:03:12.376Z,2.97
2018-12-14T09:04:14.863Z,2.95
2018-12-14T09:05:12.424Z,2.99
2018-12-14T09:06:12.451Z,2.99
2018-12-14T09:07:12.333Z,3.02
2018-12-14T09:08:12.381Z,3.01
2018-12-14T09:09:12.304Z,3.08
2018-12-14T09:10:12.298Z,3.07
2018-12-14T09:11:12.291Z,3.22
2018-12-14T09:12:13.820Z,3.22
2018-12-14T09:13:14.236Z,3.16
2018-12-14T09:14:15.091Z,3.20
2018-12-14T09:15:14.319Z,3.20
2018-12-14T09:16:14.841Z,3.13
2018-12-14T09:17:15.501Z,3.20
2018-12-14T09:18:15.234Z,3.19
2018-12-14T09:19:15.261Z,3.20
2018-12-14T09:20:14.261Z,3.34
2018-12-14T09:21:14.258Z,3.16
2018-12-14T09:22:13.672Z,3.12
2018-12-14T09:23:13.739Z,3.20
2018-12-14T09:24:13.943Z,3.30
2018-12-14T09:25:13.721Z,3.26
2018-12-14T09:26:15.264Z,3.34
2018-12-14T09:27:20.252Z,3.34
2018-12-14T09:28:14.343Z,3.42
2018-12-14T09:29:17.394Z,3.45
2018-12-14T09:30:16.228Z,3.53
2018-12-14T09:31:15.470Z,3.34
2018-12-14T09:32:14.333Z,3.42
2018-12-14T09:33:21.812Z,3.41
2018-12-14T09:34:14.400Z,3.41
2018-12-14T09:35:14.810Z,3.50
2018-12-14T09:36:14.068Z,3.53
2018-12-14T09:37:14.162Z,3.35
2018-12-14T09:38:14.042Z,3.46
2018-12-14T09:39:14.142Z,3.49
2018-12-14T09:40:14.093Z,3.46
2018-12-14T09:41:16.344Z,3.56
2018-12-14T09:42:14.148Z,3.53
2018-12-14T09:43:14.175Z,3.64
2018-12-14T09:44:14.393Z,3.74
2018-12-14T09:45:14.209Z,3.67
2018-12-14T09:46:14.156Z,3.71
2018-12-14T09:47:14.363Z,3.71
2018-12-14T09:48:14.042Z,3.71
2018-12-14T09:49:14.109Z,3.72
2018-12-14T09:50:14.160Z,3.86
2018-12-14T09:51:14.325Z,3.92
2018-12-14T09:52:14.939Z,3.88
2018-12-14T09:53:14.489Z,3.81
2018-12-14T09:54:13.933Z,3.88
2018-12-14T09:55:14.341Z,3.96
2018-12-14T09:56:14.076Z,3.99
2018-12-14T09:57:14.332Z,4.06
2018-12-14T09:58:14.009Z,4.18
2018-12-14T09:59:14.359Z,4.06
2018-12-14T10:00:14.274Z,4.28
2018-12-14T10:01:14.643Z,4.28
2018-12-14T10:02:14.200Z,4.28
2018-12-14T10:03:16.073Z,4.34
2018-12-14T10:04:15.838Z,4.35
2018-12-14T10:05:34.222Z,4.53
2018-12-14T10:06:15.866Z,4.74
2018-12-14T10:07:23.084Z,4.83
2018-12-14T10:08:13.826Z,4.80
2018-12-14T10:09:13.850Z,4.97
2018-12-14T10:10:13.875Z,5.08
2018-12-14T10:11:15.028Z,5.47
2018-12-14T10:12:16.198Z,5.75
2018-12-14T10:13:13.880Z,5.83
2018-12-14T10:14:14.048Z,6.06
2018-12-14T10:15:28.261Z,6.21
2018-12-14T10:16:15.569Z,6.50
2018-12-14T10:17:15.006Z,6.54
2018-12-14T10:21:19.753Z,7.26
2018-12-14T10:22:26.751Z,7.37
2018-12-14T10:23:20.790Z,7.45
2018-12-14T10:24:19.293Z,7.58
2018-12-14T10:25:35.081Z,7.66
2018-12-14T10:26:20.773Z,7.09
2018-12-14T10:27:19.585Z,6.72
2018-12-14T10:28:20.773Z,6.72
2018-12-14T10:29:19.278Z,6.43
2018-12-14T10:30:21.193Z,6.24
2018-12-14T10:31:21.131Z,6.25
2018-12-14T10:32:19.787Z,6.25
2018-12-14T10:33:20.256Z,6.14
2018-12-14T10:34:19.715Z,6.14
2018-12-14T10:35:56.073Z,6.11
2018-12-14T10:36:20.194Z,6.10
2018-12-14T10:37:19.290Z,6.10
2018-12-14T10:38:20.095Z,6.10
2018-12-14T10:40:54.058Z,5.81
2018-12-14T10:41:53.643Z,5.74
2018-12-14T10:43:48.635Z,5.78
2018-12-14T10:44:48.200Z,5.93
2018-12-14T10:46:42.399Z,5.83
2018-12-14T10:47:42.872Z,5.66
2018-12-14T10:48:42.928Z,5.67
2018-12-14T10:49:42.816Z,5.77
2018-12-14T10:50:49.175Z,5.48
2018-12-14T10:51:43.028Z,5.40
2018-12-14T10:52:49.109Z,5.30
2018-12-14T10:53:50.381Z,5.23
2018-12-14T10:54:42.831Z,5.27
2018-12-14T10:55:42.945Z,5.33
2018-12-14T10:56:42.361Z,5.62
2018-12-14T10:57:43.388Z,5.47
2018-12-14T10:58:42.887Z,5.52
2018-12-14T10:59:42.847Z,5.49
2018-12-14T11:00:42.927Z,5.60
2018-12-14T11:01:42.237Z,5.51
2018-12-14T11:02:42.813Z,5.58
2018-12-14T11:03:43.371Z,5.52
2018-12-14T11:04:43.658Z,5.41
2018-12-14T11:05:42.825Z,5.26
2018-12-14T11:06:42.199Z,5.08
2018-12-14T11:07:42.443Z,5.04
2018-12-14T11:08:43.392Z,4.99
2018-12-14T11:09:44.291Z,5.15
2018-12-14T11:10:43.287Z,5.29
2018-12-14T11:11:44.375Z,5.24
2018-12-14T11:12:43.380Z,5.11
2018-12-14T11:13:42.941Z,4.90
2018-12-14T11:15:03.520Z,5.11
2018-12-14T11:16:03.159Z,5.22
2018-12-14T11:16:45.868Z,5.26
2018-12-14T11:17:42.858Z,5.35
2018-12-14T11:18:43.381Z,5.19
2018-12-14T11:19:42.306Z,5.27
2018-12-14T11:20:42.817Z,5.32
2018-12-14T11:21:45.394Z,5.33
2018-12-14T11:22:57.310Z,5.32
2018-12-14T11:23:42.807Z,5.29
2018-12-14T11:24:42.344Z,5.15
2018-12-14T11:25:44.328Z,5.30
2018-12-14T11:26:45.029Z,5.19
2018-12-14T11:27:42.456Z,5.23
2018-12-14T11:28:57.382Z,5.22
2018-12-14T11:29:42.173Z,5.04
2018-12-14T11:30:42.868Z,5.01
2018-12-14T11:31:41.911Z,5.05
2018-12-14T11:32:42.450Z,4.90
2018-12-14T11:33:42.391Z,4.91
2018-12-14T11:34:48.945Z,5.05
2018-12-14T11:35:42.900Z,5.06
2018-12-14T11:36:42.034Z,5.17
2018-12-14T11:37:42.428Z,5.17
2018-12-14T11:38:42.555Z,5.12
2018-12-14T11:40:37.219Z,5.12
2018-12-14T11:41:36.670Z,5.19
2018-12-14T11:43:31.394Z,5.23
2018-12-14T11:44:31.968Z,5.24
2018-12-14T11:46:26.632Z,5.22
2018-12-14T11:47:28.111Z,5.37
2018-12-14T11:49:21.116Z,5.17
2018-12-14T11:50:21.161Z,5.17
2018-12-14T11:52:15.683Z,4.91
2018-12-14T11:53:15.304Z,4.75
2018-12-14T11:55:48.228Z,4.65
2018-12-14T11:56:48.650Z,4.75
2018-12-14T11:58:43.835Z,4.91
2018-12-14T11:59:43.339Z,4.93
2018-12-14T12:01:38.329Z,4.90
2018-12-14T12:02:43.029Z,4.80
2018-12-14T12:04:32.468Z,4.90
2018-12-14T12:06:47.374Z,5.01
2018-12-14T12:07:50.281Z,5.04
2018-12-14T12:09:43.218Z,4.94
2018-12-14T12:10:41.876Z,4.97
2018-12-14T12:12:37.173Z,5.04
2018-12-14T12:13:36.281Z,5.01
2018-12-14T12:15:31.328Z,5.09
2018-12-14T12:16:31.810Z,5.04
2018-12-14T12:18:25.904Z,5.05
2018-12-14T12:19:26.229Z,4.96
2018-12-14T12:21:20.587Z,4.90
2018-12-14T12:22:20.449Z,4.84
2018-12-14T12:23:21.080Z,4.99
2018-12-14T12:24:20.396Z,4.97
2018-12-14T12:25:21.060Z,4.90
2018-12-14T12:26:21.411Z,4.90
2018-12-14T12:27:20.523Z,4.93
2018-12-14T12:28:21.101Z,5.08
2018-12-14T12:29:20.097Z,4.96
2018-12-14T12:30:21.188Z,5.02
2018-12-14T12:31:21.108Z,4.93
2018-12-14T12:32:21.067Z,4.93
2018-12-14T12:33:20.837Z,4.97
2018-12-14T12:34:20.259Z,4.88
2018-12-14T12:35:20.796Z,4.93
2018-12-14T12:36:22.033Z,4.90
2018-12-14T12:37:20.811Z,4.94
2018-12-14T12:38:20.956Z,5.05
2018-12-14T12:39:27.553Z,5.09
2018-12-14T12:40:21.548Z,4.96
2018-12-14T12:41:20.862Z,5.05
2018-12-14T12:42:20.394Z,5.09
2018-12-14T12:43:21.013Z,5.08
2018-12-14T12:44:20.893Z,5.11
2018-12-14T12:45:21.035Z,5.09
2018-12-14T12:46:20.738Z,5.08
2018-12-14T12:47:20.874Z,4.93
2018-12-14T12:48:21.139Z,4.75
2018-12-14T12:49:21.562Z,4.80
2018-12-14T12:50:20.862Z,4.71
2018-12-14T12:51:20.264Z,4.71
2018-12-14T12:52:20.665Z,4.87
2018-12-14T12:53:21.092Z,4.90
2018-12-14T12:54:27.315Z,4.75
2018-12-14T12:55:20.589Z,4.86
2018-12-14T12:56:26.513Z,4.87
2018-12-14T12:57:22.370Z,4.87
2018-12-14T12:58:20.595Z,4.90
2018-12-14T12:59:26.542Z,4.97
2018-12-14T13:00:22.469Z,4.84
2018-12-14T13:01:20.480Z,4.80
2018-12-14T13:02:22.881Z,4.93
2018-12-14T13:04:21.025Z,4.88
2018-12-14T13:05:21.031Z,4.90
2018-12-14T13:07:54.169Z,4.61
2018-12-14T13:08:53.830Z,4.59
2018-12-14T13:10:47.759Z,4.67
2018-12-14T13:11:48.203Z,4.72
2018-12-14T13:13:42.967Z,4.65
2018-12-14T13:14:43.396Z,4.75
2018-12-14T13:16:47.125Z,4.75
2018-12-14T13:18:52.094Z,4.77
2018-12-14T13:19:52.039Z,4.88
2018-12-14T13:21:46.253Z,4.90
2018-12-14T13:22:46.358Z,4.88
2018-12-14T13:24:41.455Z,4.69
2018-12-14T13:25:47.620Z,4.57
2018-12-14T13:26:43.614Z,4.69
2018-12-14T13:27:41.552Z,4.61
2018-12-14T13:28:41.367Z,4.72
2018-12-14T13:29:42.046Z,4.65
2018-12-14T13:30:41.637Z,4.72
2018-12-14T13:31:42.030Z,4.71
2018-12-14T13:33:08.880Z,4.68
2018-12-14T13:33:41.515Z,4.69
2018-12-14T13:34:41.571Z,4.69
2018-12-14T13:35:41.004Z,4.69
2018-12-14T13:36:41.428Z,4.64
2018-12-14T13:37:47.374Z,4.71
2018-12-14T13:39:02.340Z,4.67
2018-12-14T13:39:41.468Z,4.69
2018-12-14T13:40:44.393Z,4.77
2018-12-14T13:41:41.397Z,4.83
2018-12-14T13:42:40.733Z,4.80
2018-12-14T13:43:41.426Z,4.75
2018-12-14T13:44:46.401Z,4.79
2018-12-14T13:45:41.197Z,4.69
2018-12-14T13:46:42.548Z,4.71
2018-12-14T13:47:41.406Z,4.75
2018-12-14T13:48:41.789Z,4.64
2018-12-14T13:49:42.030Z,4.57
2018-12-14T13:50:41.492Z,4.68
2018-12-14T13:51:40.457Z,4.75
2018-12-14T13:52:41.473Z,4.69
2018-12-14T13:53:40.796Z,4.69
2018-12-14T13:54:40.606Z,4.79
2018-12-14T13:55:41.377Z,4.72
2018-12-14T13:56:41.017Z,4.71
2018-12-14T13:57:40.362Z,4.34
2018-12-14T13:58:40.954Z,4.47
2018-12-14T13:59:40.994Z,4.43
2018-12-14T14:00:40.449Z,4.59
2018-12-14T14:01:40.915Z,4.69
2018-12-14T14:02:41.495Z,4.62
2018-12-14T14:03:40.977Z,4.59
2018-12-14T14:04:41.462Z,4.72
2018-12-14T14:05:40.982Z,4.74
2018-12-14T14:06:40.161Z,4.57
2018-12-14T14:07:41.540Z,4.56
2018-12-14T14:08:41.321Z,4.61
2018-12-14T14:09:40.912Z,4.53
2018-12-14T14:10:40.714Z,4.54
2018-12-14T14:11:40.630Z,4.47
2018-12-14T14:12:40.864Z,4.62
2018-12-14T14:13:40.680Z,4.67
2018-12-14T14:14:41.036Z,4.71
2018-12-14T14:15:41.118Z,4.65
2018-12-14T14:16:41.041Z,4.75
2018-12-14T14:17:40.947Z,4.71
2018-12-14T14:18:41.098Z,4.47
2018-12-14T14:19:39.526Z,4.51
2018-12-14T14:20:38.868Z,4.53
2018-12-14T14:21:38.858Z,4.50